sensor_id;sensor_type;location;lat;lon;timestamp;P1;durP1;ratioP1;P2;durP2;ratioP2
78891;SDS011;68368;51.728;5.248;2023-06-10T00:01:32;8.00;;;7.10;;
78891;SDS011;68368;51.728;5.248;2023-06-10T00:03:36;9.80;;;7.40;;
78891;SDS011;68368;51.728;5.248;2023-06-10T00:05:39;8.90;;;7.50;;
78891;SDS011;68368;51.728;5.248;2023-06-10T00:07:42;7.70;;;7.00;;
78891;SDS011;68368;51.728;5.248;2023-06-10T00:09:45;9.40;;;7.30;;
78891;SDS011;68368;51.728;5.248;2023-06-10T00:11:48;11.20;;;7.60;;
78891;SDS011;68368;51.728;5.248;2023-06-10T00:13:52;9.30;;;7.00;;
78891;SDS011;68368;51.728;5.248;2023-06-10T00:15:55;8.80;;;7.50;;
78891;SDS011;68368;51.728;5.248;2023-06-10T00:17:58;8.00;;;7.20;;
78891;SDS011;68368;51.728;5.248;2023-06-10T00:20:01;8.00;;;7.10;;
78891;SDS011;68368;51.728;5.248;2023-06-10T00:22:05;11.60;;;8.40;;
78891;SDS011;68368;51.728;5.248;2023-06-10T00:24:09;9.30;;;7.60;;
78891;SDS011;68368;51.728;5.248;2023-06-10T00:26:12;9.60;;;8.40;;
78891;SDS011;68368;51.728;5.248;2023-06-10T00:28:15;9.20;;;8.20;;
78891;SDS011;68368;51.728;5.248;2023-06-10T00:30:19;10.50;;;8.50;;
78891;SDS011;68368;51.728;5.248;2023-06-10T00:32:22;8.70;;;7.70;;
78891;SDS011;68368;51.728;5.248;2023-06-10T00:34:26;9.80;;;7.80;;
78891;SDS011;68368;51.728;5.248;2023-06-10T00:36:30;10.60;;;8.60;;
78891;SDS011;68368;51.728;5.248;2023-06-10T00:38:33;11.20;;;8.60;;
78891;SDS011;68368;51.728;5.248;2023-06-10T00:40:39;10.60;;;8.00;;
78891;SDS011;68368;51.728;5.248;2023-06-10T00:42:43;9.30;;;7.50;;
78891;SDS011;68368;51.728;5.248;2023-06-10T00:44:46;10.10;;;8.80;;
78891;SDS011;68368;51.728;5.248;2023-06-10T00:46:50;11.20;;;8.70;;
78891;SDS011;68368;51.728;5.248;2023-06-10T00:48:53;9.90;;;8.50;;
78891;SDS011;68368;51.728;5.248;2023-06-10T00:50:57;11.00;;;9.00;;
78891;SDS011;68368;51.728;5.248;2023-06-10T00:53:01;10.50;;;9.40;;
78891;SDS011;68368;51.728;5.248;2023-06-10T00:55:06;13.20;;;9.30;;
78891;SDS011;68368;51.728;5.248;2023-06-10T00:57:10;10.20;;;8.60;;
78891;SDS011;68368;51.728;5.248;2023-06-10T00:59:15;10.70;;;9.50;;
78891;SDS011;68368;51.728;5.248;2023-06-10T01:01:20;13.30;;;9.00;;
78891;SDS011;68368;51.728;5.248;2023-06-10T01:03:26;10.80;;;8.80;;
78891;SDS011;68368;51.728;5.248;2023-06-10T01:05:30;11.70;;;8.50;;
78891;SDS011;68368;51.728;5.248;2023-06-10T01:07:34;10.10;;;8.60;;
78891;SDS011;68368;51.728;5.248;2023-06-10T01:09:45;10.60;;;9.00;;
78891;SDS011;68368;51.728;5.248;2023-06-10T01:11:57;13.60;;;9.60;;
78891;SDS011;68368;51.728;5.248;2023-06-10T01:14:03;9.60;;;8.70;;
78891;SDS011;68368;51.728;5.248;2023-06-10T01:16:09;9.90;;;8.80;;
78891;SDS011;68368;51.728;5.248;2023-06-10T01:18:13;11.20;;;8.80;;
78891;SDS011;68368;51.728;5.248;2023-06-10T01:20:16;11.30;;;9.30;;
78891;SDS011;68368;51.728;5.248;2023-06-10T01:22:20;13.70;;;8.70;;
78891;SDS011;68368;51.728;5.248;2023-06-10T01:24:23;11.20;;;9.20;;
78891;SDS011;68368;51.728;5.248;2023-06-10T01:26:28;11.80;;;9.50;;
78891;SDS011;68368;51.728;5.248;2023-06-10T01:28:35;11.80;;;9.10;;
78891;SDS011;68368;51.728;5.248;2023-06-10T01:30:46;11.70;;;9.00;;
78891;SDS011;68368;51.728;5.248;2023-06-10T01:32:55;10.70;;;9.50;;
78891;SDS011;68368;51.728;5.248;2023-06-10T01:35:03;12.10;;;9.00;;
78891;SDS011;68368;51.728;5.248;2023-06-10T01:37:10;10.80;;;8.80;;
78891;SDS011;68368;51.728;5.248;2023-06-10T01:39:18;10.70;;;9.60;;
78891;SDS011;68368;51.728;5.248;2023-06-10T01:41:25;11.90;;;9.10;;
78891;SDS011;68368;51.728;5.248;2023-06-10T01:43:31;12.40;;;9.90;;
78891;SDS011;68368;51.728;5.248;2023-06-10T01:45:38;10.20;;;9.00;;
78891;SDS011;68368;51.728;5.248;2023-06-10T01:47:44;11.20;;;9.60;;
78891;SDS011;68368;51.728;5.248;2023-06-10T01:49:49;13.40;;;9.50;;
78891;SDS011;68368;51.728;5.248;2023-06-10T01:51:53;11.40;;;9.50;;
78891;SDS011;68368;51.728;5.248;2023-06-10T01:53:56;12.40;;;9.90;;
78891;SDS011;68368;51.728;5.248;2023-06-10T01:55:59;10.30;;;9.00;;
78891;SDS011;68368;51.728;5.248;2023-06-10T01:58:02;12.90;;;10.00;;
78891;SDS011;68368;51.728;5.248;2023-06-10T02:00:07;13.60;;;10.30;;
78891;SDS011;68368;51.728;5.248;2023-06-10T02:04:13;12.90;;;10.10;;
78891;SDS011;68368;51.728;5.248;2023-06-10T02:06:19;11.90;;;10.00;;
78891;SDS011;68368;51.728;5.248;2023-06-10T02:08:22;11.30;;;9.20;;
78891;SDS011;68368;51.728;5.248;2023-06-10T02:10:28;11.60;;;9.40;;
78891;SDS011;68368;51.728;5.248;2023-06-10T02:12:31;12.10;;;10.00;;
78891;SDS011;68368;51.728;5.248;2023-06-10T02:14:34;10.80;;;9.60;;
78891;SDS011;68368;51.728;5.248;2023-06-10T02:16:37;12.20;;;10.20;;
78891;SDS011;68368;51.728;5.248;2023-06-10T02:18:41;12.80;;;9.80;;
78891;SDS011;68368;51.728;5.248;2023-06-10T02:20:45;11.70;;;10.50;;
78891;SDS011;68368;51.728;5.248;2023-06-10T02:22:48;13.70;;;11.00;;
78891;SDS011;68368;51.728;5.248;2023-06-10T02:24:56;14.00;;;10.50;;
78891;SDS011;68368;51.728;5.248;2023-06-10T02:26:59;13.50;;;11.50;;
78891;SDS011;68368;51.728;5.248;2023-06-10T02:29:03;11.90;;;10.70;;
78891;SDS011;68368;51.728;5.248;2023-06-10T02:31:07;14.70;;;11.30;;
78891;SDS011;68368;51.728;5.248;2023-06-10T02:33:10;14.20;;;11.10;;
78891;SDS011;68368;51.728;5.248;2023-06-10T02:35:13;12.10;;;10.60;;
78891;SDS011;68368;51.728;5.248;2023-06-10T02:37:17;11.50;;;10.00;;
78891;SDS011;68368;51.728;5.248;2023-06-10T02:39:21;13.70;;;10.50;;
78891;SDS011;68368;51.728;5.248;2023-06-10T02:41:24;14.60;;;11.10;;
78891;SDS011;68368;51.728;5.248;2023-06-10T02:43:28;12.00;;;10.30;;
78891;SDS011;68368;51.728;5.248;2023-06-10T02:45:31;13.50;;;11.00;;
78891;SDS011;68368;51.728;5.248;2023-06-10T02:47:37;13.70;;;10.70;;
78891;SDS011;68368;51.728;5.248;2023-06-10T02:49:41;15.20;;;10.90;;
78891;SDS011;68368;51.728;5.248;2023-06-10T02:51:44;13.20;;;11.80;;
78891;SDS011;68368;51.728;5.248;2023-06-10T02:53:47;14.30;;;11.20;;
78891;SDS011;68368;51.728;5.248;2023-06-10T02:55:50;12.90;;;11.60;;
78891;SDS011;68368;51.728;5.248;2023-06-10T02:57:54;14.90;;;11.00;;
78891;SDS011;68368;51.728;5.248;2023-06-10T02:59:57;14.80;;;11.10;;
78891;SDS011;68368;51.728;5.248;2023-06-10T03:02:02;14.30;;;11.00;;
78891;SDS011;68368;51.728;5.248;2023-06-10T03:04:06;13.50;;;10.70;;
78891;SDS011;68368;51.728;5.248;2023-06-10T03:06:10;13.40;;;10.60;;
78891;SDS011;68368;51.728;5.248;2023-06-10T03:08:16;12.70;;;10.70;;
78891;SDS011;68368;51.728;5.248;2023-06-10T03:10:22;12.90;;;10.20;;
78891;SDS011;68368;51.728;5.248;2023-06-10T03:12:28;14.10;;;10.50;;
78891;SDS011;68368;51.728;5.248;2023-06-10T03:14:31;15.30;;;11.20;;
78891;SDS011;68368;51.728;5.248;2023-06-10T03:16:35;14.00;;;10.60;;
78891;SDS011;68368;51.728;5.248;2023-06-10T03:18:38;11.60;;;10.20;;
78891;SDS011;68368;51.728;5.248;2023-06-10T03:20:42;12.10;;;10.80;;
78891;SDS011;68368;51.728;5.248;2023-06-10T03:22:45;13.00;;;10.90;;
78891;SDS011;68368;51.728;5.248;2023-06-10T03:24:48;13.20;;;10.60;;
78891;SDS011;68368;51.728;5.248;2023-06-10T03:26:52;14.50;;;10.70;;
78891;SDS011;68368;51.728;5.248;2023-06-10T03:28:55;11.50;;;9.70;;
78891;SDS011;68368;51.728;5.248;2023-06-10T03:31:01;11.70;;;9.20;;
78891;SDS011;68368;51.728;5.248;2023-06-10T03:33:04;12.90;;;9.30;;
78891;SDS011;68368;51.728;5.248;2023-06-10T03:35:08;15.80;;;10.40;;
78891;SDS011;68368;51.728;5.248;2023-06-10T03:37:11;12.60;;;9.90;;
78891;SDS011;68368;51.728;5.248;2023-06-10T03:39:15;13.10;;;9.90;;
78891;SDS011;68368;51.728;5.248;2023-06-10T03:41:19;12.30;;;9.90;;
78891;SDS011;68368;51.728;5.248;2023-06-10T03:43:23;11.00;;;9.30;;
78891;SDS011;68368;51.728;5.248;2023-06-10T03:45:26;12.80;;;9.50;;
78891;SDS011;68368;51.728;5.248;2023-06-10T03:47:32;11.60;;;9.30;;
78891;SDS011;68368;51.728;5.248;2023-06-10T03:49:36;14.80;;;10.30;;
78891;SDS011;68368;51.728;5.248;2023-06-10T03:51:41;11.60;;;9.60;;
78891;SDS011;68368;51.728;5.248;2023-06-10T03:53:46;11.60;;;9.70;;
78891;SDS011;68368;51.728;5.248;2023-06-10T03:55:52;10.70;;;9.40;;
78891;SDS011;68368;51.728;5.248;2023-06-10T03:57:56;11.00;;;8.80;;
78891;SDS011;68368;51.728;5.248;2023-06-10T03:59:59;13.90;;;10.00;;
78891;SDS011;68368;51.728;5.248;2023-06-10T04:02:03;12.10;;;9.30;;
78891;SDS011;68368;51.728;5.248;2023-06-10T04:04:06;11.20;;;9.40;;
78891;SDS011;68368;51.728;5.248;2023-06-10T04:06:09;10.80;;;9.20;;
78891;SDS011;68368;51.728;5.248;2023-06-10T04:08:13;13.10;;;9.60;;
78891;SDS011;68368;51.728;5.248;2023-06-10T04:10:17;11.60;;;9.50;;
78891;SDS011;68368;51.728;5.248;2023-06-10T04:12:20;9.60;;;8.60;;
78891;SDS011;68368;51.728;5.248;2023-06-10T04:14:26;12.40;;;9.00;;
78891;SDS011;68368;51.728;5.248;2023-06-10T04:16:29;10.70;;;9.00;;
78891;SDS011;68368;51.728;5.248;2023-06-10T04:18:34;12.30;;;8.50;;
78891;SDS011;68368;51.728;5.248;2023-06-10T04:20:38;10.60;;;8.30;;
78891;SDS011;68368;51.728;5.248;2023-06-10T04:22:41;11.30;;;8.50;;
78891;SDS011;68368;51.728;5.248;2023-06-10T04:24:44;9.90;;;8.10;;
78891;SDS011;68368;51.728;5.248;2023-06-10T04:26:48;11.40;;;7.90;;
78891;SDS011;68368;51.728;5.248;2023-06-10T04:28:51;9.20;;;7.80;;
78891;SDS011;68368;51.728;5.248;2023-06-10T04:30:55;8.70;;;7.80;;
78891;SDS011;68368;51.728;5.248;2023-06-10T04:32:58;8.80;;;7.50;;
78891;SDS011;68368;51.728;5.248;2023-06-10T04:35:08;8.80;;;7.90;;
78891;SDS011;68368;51.728;5.248;2023-06-10T04:37:16;11.50;;;7.80;;
78891;SDS011;68368;51.728;5.248;2023-06-10T04:39:19;10.50;;;7.50;;
78891;SDS011;68368;51.728;5.248;2023-06-10T04:41:23;9.90;;;6.80;;
78891;SDS011;68368;51.728;5.248;2023-06-10T04:43:28;11.40;;;7.70;;
78891;SDS011;68368;51.728;5.248;2023-06-10T04:45:32;8.80;;;7.00;;
78891;SDS011;68368;51.728;5.248;2023-06-10T04:47:35;8.80;;;7.60;;
78891;SDS011;68368;51.728;5.248;2023-06-10T04:49:38;10.90;;;7.10;;
78891;SDS011;68368;51.728;5.248;2023-06-10T04:51:41;10.80;;;8.10;;
78891;SDS011;68368;51.728;5.248;2023-06-10T04:53:44;9.30;;;7.60;;
78891;SDS011;68368;51.728;5.248;2023-06-10T04:55:49;9.30;;;7.40;;
78891;SDS011;68368;51.728;5.248;2023-06-10T04:57:53;8.70;;;7.50;;
78891;SDS011;68368;51.728;5.248;2023-06-10T04:59:56;8.50;;;7.10;;
78891;SDS011;68368;51.728;5.248;2023-06-10T05:01:59;8.40;;;7.10;;
78891;SDS011;68368;51.728;5.248;2023-06-10T05:04:02;8.50;;;7.10;;
78891;SDS011;68368;51.728;5.248;2023-06-10T05:06:06;10.70;;;7.70;;
78891;SDS011;68368;51.728;5.248;2023-06-10T05:08:10;8.30;;;7.00;;
78891;SDS011;68368;51.728;5.248;2023-06-10T05:10:13;8.40;;;7.20;;
78891;SDS011;68368;51.728;5.248;2023-06-10T05:12:17;9.50;;;6.70;;
78891;SDS011;68368;51.728;5.248;2023-06-10T05:14:20;10.80;;;7.80;;
78891;SDS011;68368;51.728;5.248;2023-06-10T05:16:24;9.50;;;7.80;;
78891;SDS011;68368;51.728;5.248;2023-06-10T05:18:27;10.40;;;7.20;;
78891;SDS011;68368;51.728;5.248;2023-06-10T05:20:31;12.00;;;7.60;;
78891;SDS011;68368;51.728;5.248;2023-06-10T05:22:35;12.00;;;7.90;;
78891;SDS011;68368;51.728;5.248;2023-06-10T05:24:39;9.80;;;7.70;;
78891;SDS011;68368;51.728;5.248;2023-06-10T05:26:42;9.10;;;7.20;;
78891;SDS011;68368;51.728;5.248;2023-06-10T05:28:52;9.10;;;7.40;;
78891;SDS011;68368;51.728;5.248;2023-06-10T05:30:56;8.50;;;7.20;;
78891;SDS011;68368;51.728;5.248;2023-06-10T05:33:00;9.10;;;7.40;;
78891;SDS011;68368;51.728;5.248;2023-06-10T05:35:04;9.20;;;7.20;;
78891;SDS011;68368;51.728;5.248;2023-06-10T05:37:08;9.40;;;7.50;;
78891;SDS011;68368;51.728;5.248;2023-06-10T05:39:11;9.00;;;7.20;;
78891;SDS011;68368;51.728;5.248;2023-06-10T05:41:15;9.40;;;7.30;;
78891;SDS011;68368;51.728;5.248;2023-06-10T05:43:19;8.70;;;7.00;;
78891;SDS011;68368;51.728;5.248;2023-06-10T05:45:22;12.10;;;7.50;;
78891;SDS011;68368;51.728;5.248;2023-06-10T05:47:25;10.00;;;7.70;;
78891;SDS011;68368;51.728;5.248;2023-06-10T05:49:28;8.30;;;7.00;;
78891;SDS011;68368;51.728;5.248;2023-06-10T05:53:35;9.40;;;8.00;;
78891;SDS011;68368;51.728;5.248;2023-06-10T05:55:38;8.50;;;7.60;;
78891;SDS011;68368;51.728;5.248;2023-06-10T05:57:47;9.50;;;6.90;;
78891;SDS011;68368;51.728;5.248;2023-06-10T05:59:59;9.10;;;7.20;;
78891;SDS011;68368;51.728;5.248;2023-06-10T06:02:03;9.40;;;7.20;;
78891;SDS011;68368;51.728;5.248;2023-06-10T06:04:07;9.90;;;7.00;;
78891;SDS011;68368;51.728;5.248;2023-06-10T06:06:13;8.00;;;7.00;;
78891;SDS011;68368;51.728;5.248;2023-06-10T06:10:18;7.50;;;6.70;;
78891;SDS011;68368;51.728;5.248;2023-06-10T06:12:21;9.70;;;7.30;;
78891;SDS011;68368;51.728;5.248;2023-06-10T06:14:25;8.00;;;7.20;;
78891;SDS011;68368;51.728;5.248;2023-06-10T06:16:32;9.30;;;7.10;;
78891;SDS011;68368;51.728;5.248;2023-06-10T06:18:35;8.10;;;6.80;;
78891;SDS011;68368;51.728;5.248;2023-06-10T06:20:40;9.60;;;7.70;;
78891;SDS011;68368;51.728;5.248;2023-06-10T06:22:43;7.70;;;6.80;;
78891;SDS011;68368;51.728;5.248;2023-06-10T06:24:47;10.30;;;7.50;;
78891;SDS011;68368;51.728;5.248;2023-06-10T06:26:51;8.70;;;6.90;;
78891;SDS011;68368;51.728;5.248;2023-06-10T06:28:55;9.30;;;8.00;;
78891;SDS011;68368;51.728;5.248;2023-06-10T06:30:58;36.20;;;23.40;;
78891;SDS011;68368;51.728;5.248;2023-06-10T06:33:02;21.10;;;18.40;;
78891;SDS011;68368;51.728;5.248;2023-06-10T06:35:07;7.80;;;7.00;;
78891;SDS011;68368;51.728;5.248;2023-06-10T06:37:11;9.90;;;6.30;;
78891;SDS011;68368;51.728;5.248;2023-06-10T06:39:14;9.30;;;6.30;;
78891;SDS011;68368;51.728;5.248;2023-06-10T06:41:18;10.10;;;6.40;;
78891;SDS011;68368;51.728;5.248;2023-06-10T06:43:22;7.50;;;5.80;;
78891;SDS011;68368;51.728;5.248;2023-06-10T06:45:25;9.20;;;6.10;;
78891;SDS011;68368;51.728;5.248;2023-06-10T06:47:28;9.60;;;6.20;;
78891;SDS011;68368;51.728;5.248;2023-06-10T06:49:32;7.40;;;5.60;;
78891;SDS011;68368;51.728;5.248;2023-06-10T06:51:45;9.20;;;6.10;;
78891;SDS011;68368;51.728;5.248;2023-06-10T06:53:50;8.80;;;6.00;;
78891;SDS011;68368;51.728;5.248;2023-06-10T06:55:53;6.50;;;5.30;;
78891;SDS011;68368;51.728;5.248;2023-06-10T06:57:56;7.10;;;5.50;;
78891;SDS011;68368;51.728;5.248;2023-06-10T06:59:59;5.40;;;4.80;;
78891;SDS011;68368;51.728;5.248;2023-06-10T07:02:03;8.60;;;7.00;;
78891;SDS011;68368;51.728;5.248;2023-06-10T07:04:08;7.70;;;5.50;;
78891;SDS011;68368;51.728;5.248;2023-06-10T07:06:11;6.40;;;5.40;;
78891;SDS011;68368;51.728;5.248;2023-06-10T07:08:17;8.40;;;5.30;;
78891;SDS011;68368;51.728;5.248;2023-06-10T07:10:23;7.20;;;5.40;;
78891;SDS011;68368;51.728;5.248;2023-06-10T07:12:27;8.70;;;5.80;;
78891;SDS011;68368;51.728;5.248;2023-06-10T07:14:30;7.80;;;6.10;;
78891;SDS011;68368;51.728;5.248;2023-06-10T07:16:33;7.80;;;5.70;;
78891;SDS011;68368;51.728;5.248;2023-06-10T07:18:37;6.30;;;5.00;;
78891;SDS011;68368;51.728;5.248;2023-06-10T07:20:41;8.90;;;5.20;;
78891;SDS011;68368;51.728;5.248;2023-06-10T07:22:47;6.90;;;5.30;;
78891;SDS011;68368;51.728;5.248;2023-06-10T07:24:50;7.50;;;5.60;;
78891;SDS011;68368;51.728;5.248;2023-06-10T07:26:54;7.50;;;5.90;;
78891;SDS011;68368;51.728;5.248;2023-06-10T07:29:04;6.60;;;5.00;;
78891;SDS011;68368;51.728;5.248;2023-06-10T07:31:09;7.70;;;5.60;;
78891;SDS011;68368;51.728;5.248;2023-06-10T07:33:12;7.10;;;5.50;;
78891;SDS011;68368;51.728;5.248;2023-06-10T07:35:15;5.90;;;5.30;;
78891;SDS011;68368;51.728;5.248;2023-06-10T07:37:19;7.60;;;5.60;;
78891;SDS011;68368;51.728;5.248;2023-06-10T07:39:22;9.20;;;5.40;;
78891;SDS011;68368;51.728;5.248;2023-06-10T07:41:25;7.70;;;6.00;;
78891;SDS011;68368;51.728;5.248;2023-06-10T07:43:29;9.20;;;6.50;;
78891;SDS011;68368;51.728;5.248;2023-06-10T07:45:35;6.80;;;5.80;;
78891;SDS011;68368;51.728;5.248;2023-06-10T07:47:42;7.10;;;5.40;;
78891;SDS011;68368;51.728;5.248;2023-06-10T07:49:46;8.30;;;5.70;;
78891;SDS011;68368;51.728;5.248;2023-06-10T07:51:51;8.60;;;5.40;;
78891;SDS011;68368;51.728;5.248;2023-06-10T07:53:55;6.80;;;5.50;;
78891;SDS011;68368;51.728;5.248;2023-06-10T07:55:58;9.90;;;5.60;;
78891;SDS011;68368;51.728;5.248;2023-06-10T07:58:01;7.70;;;5.70;;
78891;SDS011;68368;51.728;5.248;2023-06-10T08:00:06;12.10;;;6.20;;
78891;SDS011;68368;51.728;5.248;2023-06-10T08:02:11;8.80;;;7.60;;
78891;SDS011;68368;51.728;5.248;2023-06-10T08:04:15;7.00;;;5.60;;
78891;SDS011;68368;51.728;5.248;2023-06-10T08:06:18;8.70;;;6.20;;
78891;SDS011;68368;51.728;5.248;2023-06-10T08:08:21;9.70;;;5.50;;
78891;SDS011;68368;51.728;5.248;2023-06-10T08:10:26;6.70;;;4.70;;
78891;SDS011;68368;51.728;5.248;2023-06-10T08:12:29;10.20;;;9.30;;
78891;SDS011;68368;51.728;5.248;2023-06-10T08:14:32;8.40;;;6.20;;
78891;SDS011;68368;51.728;5.248;2023-06-10T08:16:37;7.80;;;5.90;;
78891;SDS011;68368;51.728;5.248;2023-06-10T08:18:43;6.30;;;5.60;;
78891;SDS011;68368;51.728;5.248;2023-06-10T08:20:46;7.00;;;5.10;;
78891;SDS011;68368;51.728;5.248;2023-06-10T08:22:50;7.20;;;5.40;;
78891;SDS011;68368;51.728;5.248;2023-06-10T08:24:53;7.60;;;5.20;;
78891;SDS011;68368;51.728;5.248;2023-06-10T08:26:56;7.60;;;5.20;;
78891;SDS011;68368;51.728;5.248;2023-06-10T08:28:59;10.50;;;6.50;;
78891;SDS011;68368;51.728;5.248;2023-06-10T08:31:02;7.20;;;4.90;;
78891;SDS011;68368;51.728;5.248;2023-06-10T08:33:07;6.20;;;5.20;;
78891;SDS011;68368;51.728;5.248;2023-06-10T08:35:10;8.30;;;5.40;;
78891;SDS011;68368;51.728;5.248;2023-06-10T08:37:14;8.00;;;5.10;;
78891;SDS011;68368;51.728;5.248;2023-06-10T08:39:18;7.20;;;5.30;;
78891;SDS011;68368;51.728;5.248;2023-06-10T08:41:22;7.10;;;5.20;;
78891;SDS011;68368;51.728;5.248;2023-06-10T08:43:31;9.00;;;5.00;;
78891;SDS011;68368;51.728;5.248;2023-06-10T08:45:38;6.80;;;4.70;;
78891;SDS011;68368;51.728;5.248;2023-06-10T08:47:44;7.10;;;4.90;;
78891;SDS011;68368;51.728;5.248;2023-06-10T08:49:49;8.00;;;5.00;;
78891;SDS011;68368;51.728;5.248;2023-06-10T08:51:54;6.80;;;5.00;;
78891;SDS011;68368;51.728;5.248;2023-06-10T08:54:01;9.70;;;5.20;;
78891;SDS011;68368;51.728;5.248;2023-06-10T08:56:07;6.80;;;5.30;;
78891;SDS011;68368;51.728;5.248;2023-06-10T08:58:13;6.70;;;5.20;;
78891;SDS011;68368;51.728;5.248;2023-06-10T09:00:17;6.00;;;5.10;;
78891;SDS011;68368;51.728;5.248;2023-06-10T09:02:20;6.60;;;4.60;;
78891;SDS011;68368;51.728;5.248;2023-06-10T09:04:25;6.90;;;4.80;;
78891;SDS011;68368;51.728;5.248;2023-06-10T09:06:29;6.00;;;4.40;;
78891;SDS011;68368;51.728;5.248;2023-06-10T09:08:34;8.00;;;5.60;;
78891;SDS011;68368;51.728;5.248;2023-06-10T09:10:38;7.70;;;5.00;;
78891;SDS011;68368;51.728;5.248;2023-06-10T09:12:41;7.70;;;5.20;;
78891;SDS011;68368;51.728;5.248;2023-06-10T09:14:45;8.10;;;5.10;;
78891;SDS011;68368;51.728;5.248;2023-06-10T09:16:48;7.00;;;4.60;;
78891;SDS011;68368;51.728;5.248;2023-06-10T09:18:53;6.90;;;6.20;;
78891;SDS011;68368;51.728;5.248;2023-06-10T09:20:57;7.80;;;5.70;;
78891;SDS011;68368;51.728;5.248;2023-06-10T09:23:00;7.60;;;5.10;;
78891;SDS011;68368;51.728;5.248;2023-06-10T09:25:05;7.60;;;5.90;;
78891;SDS011;68368;51.728;5.248;2023-06-10T09:27:09;9.10;;;5.30;;
78891;SDS011;68368;51.728;5.248;2023-06-10T09:29:12;6.60;;;4.80;;
78891;SDS011;68368;51.728;5.248;2023-06-10T09:31:16;6.40;;;4.90;;
78891;SDS011;68368;51.728;5.248;2023-06-10T09:33:20;7.50;;;5.60;;
78891;SDS011;68368;51.728;5.248;2023-06-10T09:35:28;7.20;;;5.60;;
78891;SDS011;68368;51.728;5.248;2023-06-10T09:37:32;8.60;;;5.40;;
78891;SDS011;68368;51.728;5.248;2023-06-10T09:39:40;7.80;;;5.50;;
78891;SDS011;68368;51.728;5.248;2023-06-10T09:41:44;9.10;;;5.70;;
78891;SDS011;68368;51.728;5.248;2023-06-10T09:43:47;7.20;;;5.10;;
78891;SDS011;68368;51.728;5.248;2023-06-10T09:45:50;9.50;;;5.60;;
78891;SDS011;68368;51.728;5.248;2023-06-10T09:47:57;8.10;;;5.70;;
78891;SDS011;68368;51.728;5.248;2023-06-10T09:50:00;8.90;;;5.50;;
78891;SDS011;68368;51.728;5.248;2023-06-10T09:52:04;6.90;;;5.50;;
78891;SDS011;68368;51.728;5.248;2023-06-10T09:54:10;8.70;;;5.80;;
78891;SDS011;68368;51.728;5.248;2023-06-10T09:56:13;7.00;;;5.50;;
78891;SDS011;68368;51.728;5.248;2023-06-10T09:58:17;6.70;;;5.40;;
78891;SDS011;68368;51.728;5.248;2023-06-10T10:00:34;9.70;;;5.80;;
78891;SDS011;68368;51.728;5.248;2023-06-10T10:02:45;10.50;;;5.90;;
78891;SDS011;68368;51.728;5.248;2023-06-10T10:04:49;8.30;;;5.80;;
78891;SDS011;68368;51.728;5.248;2023-06-10T10:06:53;8.30;;;5.80;;
78891;SDS011;68368;51.728;5.248;2023-06-10T10:08:56;8.50;;;6.10;;
78891;SDS011;68368;51.728;5.248;2023-06-10T10:10:59;6.70;;;5.70;;
78891;SDS011;68368;51.728;5.248;2023-06-10T10:13:03;7.50;;;5.20;;
78891;SDS011;68368;51.728;5.248;2023-06-10T10:15:08;9.90;;;5.80;;
78891;SDS011;68368;51.728;5.248;2023-06-10T10:17:13;7.70;;;5.50;;
78891;SDS011;68368;51.728;5.248;2023-06-10T10:19:18;8.40;;;6.10;;
78891;SDS011;68368;51.728;5.248;2023-06-10T10:21:28;8.30;;;5.90;;
78891;SDS011;68368;51.728;5.248;2023-06-10T10:23:37;6.90;;;5.20;;
78891;SDS011;68368;51.728;5.248;2023-06-10T10:25:51;8.60;;;5.20;;
78891;SDS011;68368;51.728;5.248;2023-06-10T10:27:56;8.00;;;5.80;;
78891;SDS011;68368;51.728;5.248;2023-06-10T10:30:02;7.40;;;5.80;;
78891;SDS011;68368;51.728;5.248;2023-06-10T10:32:08;9.70;;;5.80;;
78891;SDS011;68368;51.728;5.248;2023-06-10T10:34:14;9.50;;;6.00;;
78891;SDS011;68368;51.728;5.248;2023-06-10T10:36:23;7.80;;;6.10;;
78891;SDS011;68368;51.728;5.248;2023-06-10T10:38:26;8.60;;;5.60;;
78891;SDS011;68368;51.728;5.248;2023-06-10T10:40:31;6.20;;;5.10;;
78891;SDS011;68368;51.728;5.248;2023-06-10T10:42:37;7.60;;;5.40;;
78891;SDS011;68368;51.728;5.248;2023-06-10T10:44:41;6.70;;;5.40;;
78891;SDS011;68368;51.728;5.248;2023-06-10T10:46:48;8.10;;;5.70;;
78891;SDS011;68368;51.728;5.248;2023-06-10T10:48:54;7.50;;;6.00;;
78891;SDS011;68368;51.728;5.248;2023-06-10T10:51:00;8.10;;;5.80;;
78891;SDS011;68368;51.728;5.248;2023-06-10T10:53:03;6.90;;;5.40;;
78891;SDS011;68368;51.728;5.248;2023-06-10T10:55:07;6.50;;;4.70;;
78891;SDS011;68368;51.728;5.248;2023-06-10T10:57:16;7.50;;;5.50;;
78891;SDS011;68368;51.728;5.248;2023-06-10T11:01:23;7.90;;;5.50;;
78891;SDS011;68368;51.728;5.248;2023-06-10T11:03:44;5.90;;;4.70;;
78891;SDS011;68368;51.728;5.248;2023-06-10T11:05:48;6.40;;;5.00;;
78891;SDS011;68368;51.728;5.248;2023-06-10T11:07:55;10.20;;;5.70;;
78891;SDS011;68368;51.728;5.248;2023-06-10T11:09:59;7.10;;;4.90;;
78891;SDS011;68368;51.728;5.248;2023-06-10T11:12:03;6.20;;;4.80;;
78891;SDS011;68368;51.728;5.248;2023-06-10T11:14:11;9.20;;;5.10;;
78891;SDS011;68368;51.728;5.248;2023-06-10T11:16:27;7.10;;;4.90;;
78891;SDS011;68368;51.728;5.248;2023-06-10T11:18:31;6.40;;;4.70;;
78891;SDS011;68368;51.728;5.248;2023-06-10T11:20:43;9.60;;;5.30;;
78891;SDS011;68368;51.728;5.248;2023-06-10T11:22:59;9.50;;;5.00;;
78891;SDS011;68368;51.728;5.248;2023-06-10T11:25:04;7.30;;;5.10;;
78891;SDS011;68368;51.728;5.248;2023-06-10T11:27:19;7.40;;;5.20;;
78891;SDS011;68368;51.728;5.248;2023-06-10T11:29:24;7.10;;;5.30;;
78891;SDS011;68368;51.728;5.248;2023-06-10T11:31:28;8.20;;;5.30;;
78891;SDS011;68368;51.728;5.248;2023-06-10T11:33:33;7.20;;;4.40;;
78891;SDS011;68368;51.728;5.248;2023-06-10T11:35:39;7.80;;;5.10;;
78891;SDS011;68368;51.728;5.248;2023-06-10T11:37:43;7.60;;;4.70;;
78891;SDS011;68368;51.728;5.248;2023-06-10T11:39:48;6.70;;;5.10;;
78891;SDS011;68368;51.728;5.248;2023-06-10T11:41:55;6.40;;;4.60;;
78891;SDS011;68368;51.728;5.248;2023-06-10T11:44:00;6.40;;;5.00;;
78891;SDS011;68368;51.728;5.248;2023-06-10T11:46:05;6.00;;;5.10;;
78891;SDS011;68368;51.728;5.248;2023-06-10T11:48:09;5.00;;;4.00;;
78891;SDS011;68368;51.728;5.248;2023-06-10T11:50:13;6.10;;;4.80;;
78891;SDS011;68368;51.728;5.248;2023-06-10T11:52:29;7.60;;;5.20;;
78891;SDS011;68368;51.728;5.248;2023-06-10T11:54:33;6.00;;;4.40;;
78891;SDS011;68368;51.728;5.248;2023-06-10T11:56:36;6.30;;;4.60;;
78891;SDS011;68368;51.728;5.248;2023-06-10T11:58:39;6.60;;;4.90;;
78891;SDS011;68368;51.728;5.248;2023-06-10T12:00:47;5.90;;;4.70;;
78891;SDS011;68368;51.728;5.248;2023-06-10T12:02:56;5.50;;;4.40;;
78891;SDS011;68368;51.728;5.248;2023-06-10T12:05:10;6.50;;;4.70;;
78891;SDS011;68368;51.728;5.248;2023-06-10T12:07:18;6.80;;;5.00;;
78891;SDS011;68368;51.728;5.248;2023-06-10T12:09:23;7.60;;;4.90;;
78891;SDS011;68368;51.728;5.248;2023-06-10T12:11:27;6.10;;;4.50;;
78891;SDS011;68368;51.728;5.248;2023-06-10T12:13:31;10.20;;;5.80;;
78891;SDS011;68368;51.728;5.248;2023-06-10T12:15:34;6.70;;;4.50;;
78891;SDS011;68368;51.728;5.248;2023-06-10T12:17:37;32.00;;;15.90;;
78891;SDS011;68368;51.728;5.248;2023-06-10T12:19:40;6.60;;;5.40;;
78891;SDS011;68368;51.728;5.248;2023-06-10T12:21:43;15.10;;;8.30;;
78891;SDS011;68368;51.728;5.248;2023-06-10T12:24:07;34.30;;;17.10;;
78891;SDS011;68368;51.728;5.248;2023-06-10T12:26:16;15.00;;;8.10;;
78891;SDS011;68368;51.728;5.248;2023-06-10T12:28:21;9.30;;;5.70;;
78891;SDS011;68368;51.728;5.248;2023-06-10T12:30:27;9.30;;;5.60;;
78891;SDS011;68368;51.728;5.248;2023-06-10T12:32:37;6.80;;;5.10;;
78891;SDS011;68368;51.728;5.248;2023-06-10T12:34:42;7.50;;;4.70;;